RLSO2: Arkansas River, Ralston, OK

Data processed at Wed May 25 23:20:55 2016 Central Daylight Time


All information presented herein is the property of the government of the United States of America and may be revised or deleted at any time without prior notice.
Dissemination of this information without the expressed written consent of the Public Affairs Office, Tulsa District U.S. Army Corps of Engineers is strictly prohibited.
These data are gathered electronically and, as presented, have not undergone any form of quality control. These data are not guaranteed to be valid or correct.
Go to home page.
Go to station list.
Go to station map.

Upstream stations:

Downstream station: Previous Day
Next Day
Current Day

Display graphics.
Display DCP transmissions.


    
    SHEF ID:       RLSO2     Arkansas River, Ralston, OK
    STATION TYPE:  STREAM GAGE
    Regulation Limits:  Stage =   16.00, Flow =   79357
    
                   PRECIP    PRECIP     STAGE     STAGE  RIV-FLOW  RIV-FLOW   VOLTAGE   VOLTAGE
                   INCHES    INCHES      FEET      FEET       CFS       CFS     VOLTS     VOLTS
                     GOES      GOES      GOES      GOES      GOES      GOES      GOES      GOES
       (Cen)
    05/25 01:00      0.00      0.00      5.11      5.11      4091      4091     12.65     12.65
    05/25 02:00      0.00      0.00      5.08      5.08      4015      4015     12.65     12.65
    05/25 03:00      0.00      0.00      5.06      5.06      3964      3964     12.65     12.65
    05/25 04:00      0.00      0.00      5.04      5.04      3914      3914     12.65     12.65
    05/25 05:00      0.00      0.00      5.01      5.01      3839      3839     12.65     12.65
    05/25 06:00      0.00      0.00      4.93      4.93      3640      3640     12.65     12.65
    05/25 07:00      0.11      0.11      4.93      4.93      3640      3640     12.57     12.57
    05/25 08:00      0.07      0.07      4.92      4.92      3615      3615     12.57     12.57
    05/25 09:00      0.01      0.01      4.99      4.99      3789      3789     12.97     12.97
    05/25 10:00      0.00      0.00      5.13      5.13      4143      4143     13.29     13.29
    05/25 11:00      0.00      0.00      5.45      5.45      5022      5022     13.76     13.76
    05/25 12:00      0.00      0.00      5.97      5.97      6560      6560     13.76     13.76
    05/25 13:00      0.00      0.00      6.78      6.78      9304      9304     13.76     13.76
    05/25 14:00      0.00      0.00      7.35      7.35     11514     11514     13.76     13.76
    05/25 15:00      0.00      0.00      7.81      7.81     13525     13525     13.76     13.76
    05/25 16:00      0.00      0.00      8.18      8.18     15221     15221     13.68     13.68
    05/25 17:00      0.00      0.00      8.45      8.45     16594     16594     13.44     13.44
    05/25 18:00      0.00      0.00      8.71      8.71     17851     17851     13.44     13.44
    05/25 19:00      0.00      0.00      8.89      8.89     18779     18779     13.37     13.37
    05/25 20:00      0.00      0.00      8.99      8.99     19302     19302     13.29     13.29
    05/25 21:00      0.00      0.00      9.05      9.05     19611     19611     12.97     12.97
    05/25 22:00      0.00      0.00      9.03      9.03     19508     19508     12.65     12.65
    05/25 23:00      0.00      0.00      9.03      9.03     19508     19508     12.73     12.73
    05/26 00:00      ----      ----      ----      ----      ----      ----      ----      ----